Time;durP1;ratioP1;P1;durP2;ratioP2;P2;SDS_P1;SDS_P2;PMS_P1;PMS_P2;Temp;Humidity;BMP_temperature;BMP_pressure;BME280_temperature;BME280_humidity;BME280_pressure;Samples;Min_cycle;Max_cycle;Signal;HPM_P1;HPM_P2
2022/05/19 00:00:36;;;;;;;;;;;;;;;18.16;47.95;93412.31;2055774;70;20134;-70
2022/05/19 00:13:30;;;;;;;;;;;;;;;18.01;49.09;93398.81;2055725;69;20050;-70
2022/05/19 00:19:25;;;;;;;;;;;;;;;18.26;46.22;93407.03;2055207;69;20107;-71
2022/05/19 00:21:51;;;;;;;;;;;;;;;17.61;49.89;93406.22;2055536;69;20502;-71
2022/05/19 00:24:16;;;;;;;;;;;;;;;17.71;49.66;93404.56;2055681;70;20414;-69
2022/05/19 00:26:43;;;;;;;;;;;;;;;17.84;49.54;93413.72;2055599;70;20050;-69
2022/05/19 00:29:09;;;;;;;;;;;;;;;17.58;51.01;93405.41;2055685;69;20149;-70
2022/05/19 00:31:35;;;;;;;;;;;;;;;17.58;50.75;93404.66;2055704;70;20058;-71
2022/05/19 00:34:01;;;;;;;;;;;;;;;17.85;48.54;93406.63;2068543;69;20062;-70
2022/05/19 00:36:27;;;;;;;;;;;;;;;18.17;46.41;93399.53;2055613;69;20101;-69
2022/05/19 00:38:52;;;;;;;;;;;;;;;17.86;48.02;93403.13;2055666;69;20525;-70
2022/05/19 00:41:18;;;;;;;;;;;;;;;17.95;47.87;93399.25;2055677;69;20390;-74
2022/05/19 00:47:16;;;;;;;;;;;;;;;17.91;47.72;93401.19;2055768;69;20142;-71
2022/05/19 00:49:43;;;;;;;;;;;;;;;17.79;48.92;93395.69;2055688;69;20069;-72
2022/05/19 00:52:10;;;;;;;;;;;;;;;17.69;49.70;93398.81;2055900;69;20139;-71
2022/05/19 00:54:39;;;;;;;;;;;;;;;17.40;49.61;93396.00;2055770;69;20086;-72
2022/05/19 00:57:04;;;;;;;;;;;;;;;17.40;50.21;93396.00;2055914;69;20050;-72
2022/05/19 01:00:02;;;;;;;;;;;;;;;17.18;51.21;93392.84;2055351;70;20049;-71
2022/05/19 01:02:30;;;;;;;;;;;;;;;17.43;49.57;93395.47;2057782;69;20259;-72
2022/05/19 01:05:00;;;;;;;;;;;;;;;17.86;47.91;93391.72;2057722;69;20096;-72
2022/05/19 01:07:40;;;;;;;;;;;;;;;17.59;48.90;93403.28;2057875;69;20085;-70
2022/05/19 01:10:06;;;;;;;;;;;;;;;17.48;50.00;93399.25;2054807;69;20061;-72
2022/05/19 01:16:00;;;;;;;;;;;;;;;17.56;48.46;93402.47;2057886;69;20602;-71
2022/05/19 01:18:27;;;;;;;;;;;;;;;17.57;48.94;93398.25;2057547;69;20499;-72
2022/05/19 01:20:53;;;;;;;;;;;;;;;17.51;48.52;93404.38;2057854;69;20165;-71
2022/05/19 01:23:37;;;;;;;;;;;;;;;17.47;49.01;93398.50;2057705;69;20593;-71
2022/05/19 01:26:11;;;;;;;;;;;;;;;17.66;46.87;93402.94;2057832;69;20139;-72
2022/05/19 01:28:36;;;;;;;;;;;;;;;17.57;48.20;93403.19;2057721;69;20108;-70
2022/05/19 01:31:02;;;;;;;;;;;;;;;17.46;48.04;93411.28;2057745;69;20070;-70
2022/05/19 01:33:27;;;;;;;;;;;;;;;17.39;49.19;93403.09;2057613;69;20074;-70
2022/05/19 01:35:53;;;;;;;;;;;;;;;17.30;49.78;93412.63;2057631;69;20195;-71
2022/05/19 01:38:25;;;;;;;;;;;;;;;17.61;48.03;93404.13;2066059;69;20048;-72
2022/05/19 01:40:57;;;;;;;;;;;;;;;17.50;47.33;93402.16;2071148;69;20091;-70
2022/05/19 01:43:29;;;;;;;;;;;;;;;17.25;49.02;93409.56;2071774;69;20137;-72
2022/05/19 01:46:15;;;;;;;;;;;;;;;17.05;49.76;93405.03;2071685;69;20052;-71
2022/05/19 01:48:46;;;;;;;;;;;;;;;17.29;48.78;93403.34;2071525;69;20056;-71
2022/05/19 01:51:15;;;;;;;;;;;;;;;17.29;48.83;93397.66;2071827;69;20148;-71
2022/05/19 01:53:40;;;;;;;;;;;;;;;17.10;50.51;93401.03;2071852;69;20059;-70
2022/05/19 01:56:32;;;;;;;;;;;;;;;17.13;50.39;93397.59;2071810;69;20053;-71
2022/05/19 01:59:16;;;;;;;;;;;;;;;17.27;48.80;93406.09;2070156;69;20095;-70
2022/05/19 02:01:46;;;;;;;;;;;;;;;16.90;51.48;93401.50;2071732;69;20044;-70
2022/05/19 02:04:19;;;;;;;;;;;;;;;17.01;50.30;93402.72;2071107;69;20056;-71
2022/05/19 02:06:46;;;;;;;;;;;;;;;16.99;50.73;93399.78;2071650;69;20087;-72
2022/05/19 02:09:20;;;;;;;;;;;;;;;17.00;50.05;93396.31;2071723;69;20060;-71
2022/05/19 02:11:49;;;;;;;;;;;;;;;16.91;50.92;93400.13;2071202;69;20503;-72
2022/05/19 02:14:17;;;;;;;;;;;;;;;16.95;50.76;93408.09;2071811;69;20080;-71
2022/05/19 02:16:43;;;;;;;;;;;;;;;16.63;51.03;93401.53;2071745;69;20079;-72
2022/05/19 02:19:10;;;;;;;;;;;;;;;16.86;51.13;93409.84;2071285;69;20059;-72
2022/05/19 02:21:36;;;;;;;;;;;;;;;16.62;51.27;93408.59;2071652;69;20079;-73
2022/05/19 02:24:02;;;;;;;;;;;;;;;16.77;49.94;93405.88;2056993;69;20542;-70
2022/05/19 02:26:32;;;;;;;;;;;;;;;16.91;49.56;93413.63;2055349;69;20142;-73
2022/05/19 02:29:00;;;;;;;;;;;;;;;16.71;50.62;93410.47;2055300;69;20050;-71
2022/05/19 02:31:26;;;;;;;;;;;;;;;16.87;49.29;93397.09;2055814;70;20056;-72
2022/05/19 02:33:52;;;;;;;;;;;;;;;17.00;47.84;93402.00;2055607;69;20062;-73
2022/05/19 02:39:46;;;;;;;;;;;;;;;16.85;49.08;93402.66;2055950;69;20231;-74
2022/05/19 02:42:11;;;;;;;;;;;;;;;16.63;51.02;93404.38;2055991;70;20482;-73
2022/05/19 02:44:37;;;;;;;;;;;;;;;16.79;49.30;93399.53;2056078;70;20062;-73
2022/05/19 02:47:03;;;;;;;;;;;;;;;16.83;49.52;93399.00;2055851;70;20081;-72
2022/05/19 02:49:28;;;;;;;;;;;;;;;16.81;49.36;93393.94;2055730;70;20092;-73
2022/05/19 02:51:53;;;;;;;;;;;;;;;16.71;49.66;93388.47;2055869;70;20157;-72
2022/05/19 02:54:21;;;;;;;;;;;;;;;16.75;50.74;93396.50;2055640;70;20046;-72
2022/05/19 02:56:47;;;;;;;;;;;;;;;16.75;50.36;93391.53;2055850;70;20054;-73
2022/05/19 02:59:12;;;;;;;;;;;;;;;16.56;52.20;93399.78;2055901;70;20051;-72
2022/05/19 03:01:38;;;;;;;;;;;;;;;16.76;49.93;93390.16;2055928;70;20062;-72
2022/05/19 03:04:04;;;;;;;;;;;;;;;16.53;50.02;93398.94;2055854;70;20549;-72
2022/05/19 03:06:29;;;;;;;;;;;;;;;16.62;50.48;93400.06;2056056;70;20054;-72
2022/05/19 03:08:55;;;;;;;;;;;;;;;16.85;48.10;93399.09;2056037;70;20046;-72
2022/05/19 03:11:20;;;;;;;;;;;;;;;16.70;50.11;93400.47;2055951;70;20145;-73
2022/05/19 03:13:45;;;;;;;;;;;;;;;16.64;51.03;93400.19;2055937;70;20051;-72
2022/05/19 03:16:11;;;;;;;;;;;;;;;16.58;51.41;93411.97;2056050;70;20054;-72
2022/05/19 03:18:36;;;;;;;;;;;;;;;16.63;50.61;93398.69;2055790;70;20094;-74
2022/05/19 03:21:02;;;;;;;;;;;;;;;16.53;51.27;93404.63;2068956;69;20058;-74
2022/05/19 03:23:27;;;;;;;;;;;;;;;16.60;50.52;93402.84;2055809;69;20113;-73
2022/05/19 03:29:21;;;;;;;;;;;;;;;16.63;50.57;93412.91;2055955;70;20441;-73
2022/05/19 03:31:47;;;;;;;;;;;;;;;16.67;49.35;93407.44;2055898;70;20055;-72
2022/05/19 03:34:12;;;;;;;;;;;;;;;17.05;48.65;93416.44;2055814;70;20089;-72
2022/05/19 03:36:38;;;;;;;;;;;;;;;16.67;49.93;93415.97;2055978;70;20051;-73
2022/05/19 03:39:03;;;;;;;;;;;;;;;16.50;50.41;93412.31;2055907;70;20070;-72
2022/05/19 03:41:29;;;;;;;;;;;;;;;16.54;51.12;93400.44;2055817;70;20058;-73
2022/05/19 03:43:54;;;;;;;;;;;;;;;16.58;50.61;93406.28;2056021;70;20050;-72
2022/05/19 03:46:20;;;;;;;;;;;;;;;16.52;51.54;93406.72;2055993;70;20052;-72
2022/05/19 03:52:15;;;;;;;;;;;;;;;16.53;51.46;93422.41;2055639;69;20119;-71
2022/05/19 03:54:42;;;;;;;;;;;;;;;16.23;51.91;93420.88;2055405;69;20054;-71
2022/05/19 03:57:08;;;;;;;;;;;;;;;16.29;52.61;93426.13;2055703;70;20073;-72
2022/05/19 03:59:34;;;;;;;;;;;;;;;16.30;51.79;93419.81;2055516;70;20138;-71
2022/05/19 04:02:03;;;;;;;;;;;;;;;16.04;53.17;93427.72;2055746;70;20443;-71
2022/05/19 04:04:29;;;;;;;;;;;;;;;16.35;52.41;93423.59;2068679;69;20097;-71
2022/05/19 04:06:55;;;;;;;;;;;;;;;16.16;51.70;93428.34;2055679;70;20090;-72
2022/05/19 04:09:20;;;;;;;;;;;;;;;15.64;55.47;93432.72;2055625;70;20050;-73
2022/05/19 04:11:46;;;;;;;;;;;;;;;15.98;54.00;93439.47;2055913;70;20051;-73
2022/05/19 04:14:11;;;;;;;;;;;;;;;16.00;54.32;93444.56;2055947;70;20051;-72
2022/05/19 04:16:37;;;;;;;;;;;;;;;16.15;50.23;93441.06;2055935;70;20094;-72
2022/05/19 04:19:04;;;;;;;;;;;;;;;16.12;53.38;93438.75;2055696;70;20513;-72
2022/05/19 04:21:30;;;;;;;;;;;;;;;16.25;53.01;93444.44;2055769;69;20453;-72
2022/05/19 04:23:56;;;;;;;;;;;;;;;16.19;53.35;93443.41;2055854;69;20089;-73
2022/05/19 04:26:22;;;;;;;;;;;;;;;16.18;53.63;93447.59;2055913;69;20110;-72
2022/05/19 04:28:47;;;;;;;;;;;;;;;16.06;53.77;93450.53;2068856;69;20398;-72
2022/05/19 04:31:13;;;;;;;;;;;;;;;16.23;53.36;93444.34;2068783;69;20586;-72
2022/05/19 04:33:39;;;;;;;;;;;;;;;15.98;51.89;93452.94;2055685;70;20204;-71
2022/05/19 04:36:04;;;;;;;;;;;;;;;16.20;52.53;93450.53;2055840;70;20086;-72
2022/05/19 04:38:31;;;;;;;;;;;;;;;16.10;54.10;93461.38;2055727;70;20081;-72
2022/05/19 04:40:59;;;;;;;;;;;;;;;16.10;54.50;93462.13;2055725;70;20469;-73
2022/05/19 04:43:25;;;;;;;;;;;;;;;16.20;52.36;93461.91;2055736;70;20136;-73
2022/05/19 04:45:51;;;;;;;;;;;;;;;16.08;54.21;93459.19;2055819;70;20071;-73
2022/05/19 04:48:17;;;;;;;;;;;;;;;16.33;53.60;93454.75;2055361;70;20429;-75
2022/05/19 04:50:42;;;;;;;;;;;;;;;16.20;53.16;93454.13;2055659;70;20054;-73
2022/05/19 04:53:08;;;;;;;;;;;;;;;16.16;54.56;93464.53;2055721;70;20053;-72
2022/05/19 04:55:34;;;;;;;;;;;;;;;16.23;52.99;93460.66;2055656;70;20136;-73
2022/05/19 04:58:00;;;;;;;;;;;;;;;16.37;52.53;93458.53;2055695;70;20046;-73
2022/05/19 05:00:25;;;;;;;;;;;;;;;16.36;54.42;93462.75;2055841;70;20485;-72
2022/05/19 05:02:51;;;;;;;;;;;;;;;16.32;53.24;93461.81;2055512;70;20747;-72
2022/05/19 05:08:44;;;;;;;;;;;;;;;16.37;52.58;93464.22;2055717;69;20087;-73
2022/05/19 05:11:10;;;;;;;;;;;;;;;16.30;51.75;93473.78;2055788;69;20086;-73
2022/05/19 05:13:35;;;;;;;;;;;;;;;16.30;53.54;93475.91;2055806;70;20072;-73
2022/05/19 05:19:29;;;;;;;;;;;;;;;16.13;54.88;93474.34;2055619;69;20049;-72
2022/05/19 05:21:56;;;;;;;;;;;;;;;16.35;54.02;93474.75;2055578;69;20051;-73
2022/05/19 05:24:22;;;;;;;;;;;;;;;16.37;54.44;93474.84;2055935;70;20050;-76
2022/05/19 05:26:48;;;;;;;;;;;;;;;16.43;55.33;93467.38;2056383;69;20150;-74
2022/05/19 05:29:13;;;;;;;;;;;;;;;16.34;54.83;93471.16;2056148;70;20135;-75
2022/05/19 05:31:39;;;;;;;;;;;;;;;16.46;54.30;93471.06;2055646;70;20488;-72
2022/05/19 05:34:04;;;;;;;;;;;;;;;16.50;54.81;93477.69;2055246;69;20523;-74
2022/05/19 05:36:30;;;;;;;;;;;;;;;16.48;55.63;93468.31;2055614;70;20492;-72
2022/05/19 05:38:57;;;;;;;;;;;;;;;16.63;53.79;93469.75;2055719;70;20420;-73
2022/05/19 05:41:22;;;;;;;;;;;;;;;16.68;52.45;93475.03;2068672;69;20050;-74
2022/05/19 05:43:48;;;;;;;;;;;;;;;16.71;52.98;93479.44;2055635;69;20084;-74
2022/05/19 05:46:14;;;;;;;;;;;;;;;16.76;53.10;93471.88;2055605;70;20139;-74
2022/05/19 05:48:40;;;;;;;;;;;;;;;16.92;52.76;93480.50;2055576;70;20445;-73
2022/05/19 05:51:09;;;;;;;;;;;;;;;16.76;52.08;93474.72;2055594;69;20047;-75
2022/05/19 05:53:35;;;;;;;;;;;;;;;16.81;52.24;93479.25;2055217;70;20081;-72
2022/05/19 05:56:02;;;;;;;;;;;;;;;16.90;53.54;93474.69;2055592;69;20050;-72
2022/05/19 05:58:29;;;;;;;;;;;;;;;16.91;53.24;93491.16;2055512;70;20163;-72
2022/05/19 06:01:01;;;;;;;;;;;;;;;16.97;53.74;93491.44;2055462;70;20129;-73
2022/05/19 06:03:26;;;;;;;;;;;;;;;17.12;52.98;93486.44;2055298;70;20056;-74
2022/05/19 06:05:52;;;;;;;;;;;;;;;16.84;52.95;93475.13;2055559;70;20046;-72
2022/05/19 06:08:18;;;;;;;;;;;;;;;16.93;51.55;93476.28;2055498;70;20426;-74
2022/05/19 06:10:43;;;;;;;;;;;;;;;17.03;51.95;93476.78;2055567;70;20082;-71
2022/05/19 06:13:09;;;;;;;;;;;;;;;17.15;53.82;93482.34;2055261;70;20058;-72
2022/05/19 06:15:35;;;;;;;;;;;;;;;17.15;54.67;93474.53;2055463;69;20065;-71
2022/05/19 06:18:01;;;;;;;;;;;;;;;17.20;53.88;93466.94;2055438;69;20054;-72
2022/05/19 06:20:26;;;;;;;;;;;;;;;17.31;53.28;93479.53;2068526;69;20046;-72
2022/05/19 06:22:52;;;;;;;;;;;;;;;17.40;52.59;93478.53;2055656;69;20086;-74
2022/05/19 06:25:18;;;;;;;;;;;;;;;17.45;52.53;93471.66;2055647;70;20053;-73
2022/05/19 06:27:44;;;;;;;;;;;;;;;17.58;50.58;93468.03;2055277;70;20177;-75
2022/05/19 06:30:12;;;;;;;;;;;;;;;17.68;51.98;93476.31;2055452;70;20203;-74
2022/05/19 06:32:38;;;;;;;;;;;;;;;17.78;52.61;93473.97;2055395;70;20135;-74
2022/05/19 06:35:03;;;;;;;;;;;;;;;17.88;52.57;93468.00;2055504;70;20117;-73
2022/05/19 06:37:29;;;;;;;;;;;;;;;18.04;50.75;93472.31;2055482;70;20069;-73
2022/05/19 06:39:55;;;;;;;;;;;;;;;18.03;49.64;93473.69;2065646;69;20398;-73
2022/05/19 06:42:21;;;;;;;;;;;;;;;18.23;50.16;93473.13;2055449;70;20057;-73
2022/05/19 06:44:47;;;;;;;;;;;;;;;18.29;49.14;93462.03;2055449;70;20118;-74
2022/05/19 06:47:15;;;;;;;;;;;;;;;18.36;50.10;93466.59;2055587;70;20211;-73
2022/05/19 06:49:46;;;;;;;;;;;;;;;18.42;51.40;93458.34;2055397;70;20057;-73
2022/05/19 06:52:16;;;;;;;;;;;;;;;18.50;49.44;93463.63;2055464;69;20123;-74
2022/05/19 06:54:45;;;;;;;;;;;;;;;18.56;50.95;93468.88;2055440;70;20459;-75
2022/05/19 06:57:10;;;;;;;;;;;;;;;18.71;50.48;93468.88;2055417;70;20055;-77
2022/05/19 06:59:37;;;;;;;;;;;;;;;18.81;49.85;93462.13;2055509;70;20415;-76
2022/05/19 07:02:04;;;;;;;;;;;;;;;18.75;48.90;93462.59;2055485;70;20055;-74
2022/05/19 07:04:29;;;;;;;;;;;;;;;18.75;47.68;93465.47;2055006;70;20170;-74
2022/05/19 07:06:55;;;;;;;;;;;;;;;18.87;48.03;93457.41;2055239;70;20050;-74
2022/05/19 07:09:20;;;;;;;;;;;;;;;19.10;49.26;93458.34;2055216;69;20050;-75
2022/05/19 07:11:46;;;;;;;;;;;;;;;19.19;50.07;93463.00;2055516;70;20570;-74
2022/05/19 07:14:11;;;;;;;;;;;;;;;19.32;49.80;93462.09;2055390;70;20487;-75
2022/05/19 07:16:37;;;;;;;;;;;;;;;19.43;50.79;93464.00;2055467;70;20549;-75
2022/05/19 07:21:47;;;;;;;;;;;;;;;19.67;49.18;93463.50;2055914;69;20502;-75
2022/05/19 07:24:16;;;;;;;;;;;;;;;19.74;48.06;93468.78;2055802;70;20082;-75
2022/05/19 07:26:44;;;;;;;;;;;;;;;19.92;48.24;93460.19;2055953;69;20059;-73
2022/05/19 07:29:10;;;;;;;;;;;;;;;19.86;47.48;93464.94;2055964;69;20054;-75
2022/05/19 07:31:36;;;;;;;;;;;;;;;19.82;47.25;93459.06;2055916;70;20046;-75
2022/05/19 07:34:02;;;;;;;;;;;;;;;20.15;46.29;93455.31;2055848;70;20113;-76
2022/05/19 07:36:28;;;;;;;;;;;;;;;20.14;46.67;93460.31;2055898;70;20054;-75
2022/05/19 07:38:54;;;;;;;;;;;;;;;20.78;44.97;93458.34;2055967;70;20115;-72
2022/05/19 07:41:19;;;;;;;;;;;;;;;20.71;43.63;93458.78;2055995;70;20055;-72
2022/05/19 07:43:46;;;;;;;;;;;;;;;21.10;43.92;93452.28;2055906;69;20085;-72
2022/05/19 07:46:11;;;;;;;;;;;;;;;21.06;43.05;93455.00;2055866;70;20482;-72
2022/05/19 07:48:38;;;;;;;;;;;;;;;21.21;42.55;93459.81;2055830;70;20158;-73
2022/05/19 07:51:04;;;;;;;;;;;;;;;21.17;42.32;93451.09;2056093;70;20061;-73
2022/05/19 07:53:29;;;;;;;;;;;;;;;21.34;41.63;93451.63;2055582;70;20516;-74
2022/05/19 07:55:55;;;;;;;;;;;;;;;21.47;42.29;93445.63;2055791;70;20066;-73
2022/05/19 07:58:20;;;;;;;;;;;;;;;22.00;41.17;93437.97;2055748;69;20046;-74
2022/05/19 08:00:46;;;;;;;;;;;;;;;22.12;42.25;93435.47;2055887;69;20501;-73
2022/05/19 08:03:12;;;;;;;;;;;;;;;22.22;43.04;93435.03;2068771;69;20057;-72
2022/05/19 08:05:38;;;;;;;;;;;;;;;22.41;43.03;93434.16;2068857;69;20059;-74
2022/05/19 08:08:05;;;;;;;;;;;;;;;22.93;40.87;93431.28;2055692;70;20517;-72
2022/05/19 08:10:30;;;;;;;;;;;;;;;23.51;41.34;93430.59;2068623;69;20123;-73
2022/05/19 08:15:41;;;;;;;;;;;;;;;24.36;38.57;93426.03;2055931;70;20082;-72
2022/05/19 08:18:27;;;;;;;;;;;;;;;24.65;38.20;93430.25;2055703;70;20145;-73
2022/05/19 08:20:56;;;;;;;;;;;;;;;24.80;38.27;93425.50;2065980;69;20051;-73
2022/05/19 08:23:23;;;;;;;;;;;;;;;25.34;37.75;93437.31;2057268;69;20497;-73
2022/05/19 08:25:49;;;;;;;;;;;;;;;25.45;34.74;93428.84;2048646;70;20083;-73
2022/05/19 08:28:16;;;;;;;;;;;;;;;25.60;35.58;93424.75;2048983;70;20148;-73
2022/05/19 08:30:47;;;;;;;;;;;;;;;25.92;36.09;93433.22;2049146;70;20399;-73
2022/05/19 08:33:16;;;;;;;;;;;;;;;26.57;34.71;93424.72;2048600;70;20051;-76
2022/05/19 08:35:43;;;;;;;;;;;;;;;26.81;34.38;93433.69;2049079;70;20051;-76
2022/05/19 08:38:08;;;;;;;;;;;;;;;26.98;33.70;93425.94;2049047;70;20555;-74
2022/05/19 08:40:37;;;;;;;;;;;;;;;27.68;33.04;93423.75;2049233;70;20071;-74
2022/05/19 08:43:02;;;;;;;;;;;;;;;27.10;31.50;93419.59;2049109;70;20458;-74
2022/05/19 08:45:28;;;;;;;;;;;;;;;28.08;31.59;93423.31;2049244;70;20058;-72
2022/05/19 08:47:57;;;;;;;;;;;;;;;27.87;31.10;93425.34;2049176;70;20111;-73
2022/05/19 08:50:31;;;;;;;;;;;;;;;28.29;30.97;93415.50;2049381;70;20079;-75
2022/05/19 08:52:56;;;;;;;;;;;;;;;28.48;31.50;93407.66;2048931;70;20146;-75
2022/05/19 08:55:22;;;;;;;;;;;;;;;29.06;32.06;93403.53;2048590;70;20146;-74
2022/05/19 08:57:50;;;;;;;;;;;;;;;29.22;30.75;93400.66;2048571;70;20146;-74
2022/05/19 09:00:24;;;;;;;;;;;;;;;29.71;29.45;93394.94;2049087;70;20054;-73
2022/05/19 09:02:52;;;;;;;;;;;;;;;29.65;30.50;93402.94;2049001;70;20051;-73
2022/05/19 09:05:27;;;;;;;;;;;;;;;29.96;30.65;93389.09;2049021;69;20047;-75
2022/05/19 09:08:22;;;;;;;;;;;;;;;30.23;29.80;93395.63;2049047;70;20059;-74
2022/05/19 09:10:56;;;;;;;;;;;;;;;30.18;29.52;93391.28;2046017;70;20142;-73
2022/05/19 09:13:35;;;;;;;;;;;;;;;30.52;29.01;93384.66;2049133;70;20047;-76
2022/05/19 09:16:20;;;;;;;;;;;;;;;30.59;27.29;93377.34;2049234;70;20555;-75
2022/05/19 09:19:02;;;;;;;;;;;;;;;30.98;29.43;93380.84;2049014;70;20491;-73
2022/05/19 09:21:27;;;;;;;;;;;;;;;30.53;27.34;93380.28;2048649;70;20051;-75
2022/05/19 09:23:53;;;;;;;;;;;;;;;30.70;29.08;93372.97;2054649;70;20139;-73
2022/05/19 09:26:34;;;;;;;;;;;;;;;31.06;28.83;93380.06;2055787;70;20046;-74
2022/05/19 09:29:04;;;;;;;;;;;;;;;31.67;26.61;93373.84;2055699;70;20050;-73
2022/05/19 09:31:37;;;;;;;;;;;;;;;31.68;25.67;93372.38;2055662;70;20050;-73
2022/05/19 09:34:03;;;;;;;;;;;;;;;31.59;27.21;93365.91;2055706;70;20046;-74
2022/05/19 09:36:28;;;;;;;;;;;;;;;31.93;26.15;93366.38;2055670;70;20054;-75
2022/05/19 09:39:00;;;;;;;;;;;;;;;32.01;26.85;93363.38;2055641;70;20115;-75
2022/05/19 09:41:40;;;;;;;;;;;;;;;30.79;26.19;93362.03;2055566;69;20125;-76
2022/05/19 09:44:11;;;;;;;;;;;;;;;31.69;26.36;93352.75;2055651;70;20093;-77
2022/05/19 09:46:42;;;;;;;;;;;;;;;32.28;25.38;93350.00;2055774;69;20055;-75
2022/05/19 09:49:17;;;;;;;;;;;;;;;32.14;26.72;93353.06;2055558;70;20055;-75
2022/05/19 09:51:47;;;;;;;;;;;;;;;32.71;26.80;93348.78;2055737;70;20454;-76
2022/05/19 09:54:14;;;;;;;;;;;;;;;32.02;25.86;93347.34;2056018;70;20062;-75
2022/05/19 09:56:45;;;;;;;;;;;;;;;32.37;25.64;93348.47;2055735;70;20054;-75
2022/05/19 09:59:16;;;;;;;;;;;;;;;32.06;25.95;93348.03;2055755;70;20395;-74
2022/05/19 10:01:45;;;;;;;;;;;;;;;32.70;26.55;93345.16;2055602;70;20131;-76
2022/05/19 10:04:15;;;;;;;;;;;;;;;33.96;25.79;93348.47;2055534;70;20064;-76
2022/05/19 10:06:51;;;;;;;;;;;;;;;34.04;26.09;93339.56;2055584;70;20050;-75
2022/05/19 10:09:22;;;;;;;;;;;;;;;33.69;26.11;93335.78;2055684;70;20050;-76
2022/05/19 10:12:00;;;;;;;;;;;;;;;34.03;23.76;93322.78;2055488;70;20443;-75
2022/05/19 10:14:33;;;;;;;;;;;;;;;33.29;23.77;93317.41;2055780;70;20453;-75
2022/05/19 10:17:04;;;;;;;;;;;;;;;34.53;23.78;93326.25;2055585;70;20054;-75
2022/05/19 10:19:49;;;;;;;;;;;;;;;33.88;22.90;93325.22;2055464;70;20053;-78
2022/05/19 10:22:27;;;;;;;;;;;;;;;33.52;22.50;93324.34;2055415;70;20070;-75
2022/05/19 10:25:08;;;;;;;;;;;;;;;34.60;21.49;93322.44;2055586;70;20169;-75
2022/05/19 10:31:05;;;;;;;;;;;;;;;35.29;21.13;93307.81;2055554;70;20450;-77
2022/05/19 10:33:33;;;;;;;;;;;;;;;36.92;19.94;93309.47;2063456;69;20058;-75
2022/05/19 10:36:02;;;;;;;;;;;;;;;36.23;19.55;93302.56;2055400;70;20046;-75
2022/05/19 10:38:27;;;;;;;;;;;;;;;36.26;20.31;93301.75;2055294;70;20170;-76
2022/05/19 10:41:08;;;;;;;;;;;;;;;37.51;18.56;93301.78;2055493;70;20550;-74
2022/05/19 10:43:42;;;;;;;;;;;;;;;36.82;20.13;93292.84;2055490;70;20054;-74
2022/05/19 10:46:12;;;;;;;;;;;;;;;35.48;19.76;93287.66;2055601;70;20050;-73
2022/05/19 10:48:55;;;;;;;;;;;;;;;35.72;19.71;93284.09;2055478;70;20168;-73
2022/05/19 10:51:24;;;;;;;;;;;;;;;37.79;18.40;93275.91;2055630;69;20057;-75
2022/05/19 10:53:58;;;;;;;;;;;;;;;38.86;17.52;93291.31;2055986;70;20046;-73
2022/05/19 10:56:43;;;;;;;;;;;;;;;40.22;16.89;93285.16;2056109;70;20514;-74
2022/05/19 10:59:26;;;;;;;;;;;;;;;40.18;15.78;93285.31;2055979;70;20051;-74
2022/05/19 11:02:12;;;;;;;;;;;;;;;41.86;15.88;93273.22;2056082;70;20445;-75
2022/05/19 11:04:40;;;;;;;;;;;;;;;42.62;14.74;93273.06;2055876;70;20394;-76
2022/05/19 11:07:22;;;;;;;;;;;;;;;42.89;14.14;93266.44;2055926;70;20054;-74
2022/05/19 11:09:50;;;;;;;;;;;;;;;43.52;13.70;93268.19;2056065;70;20061;-74
2022/05/19 11:12:19;;;;;;;;;;;;;;;45.54;12.48;93273.19;2056054;69;20149;-75
2022/05/19 11:15:03;;;;;;;;;;;;;;;45.05;12.38;93265.13;2055945;70;20074;-74
2022/05/19 11:17:42;;;;;;;;;;;;;;;47.95;12.32;93275.22;2056066;69;20054;-74
2022/05/19 11:20:12;;;;;;;;;;;;;;;46.87;11.90;93265.75;2055913;70;20505;-73
2022/05/19 11:22:39;;;;;;;;;;;;;;;47.17;12.58;93256.28;2055824;69;20058;-73
2022/05/19 11:31:30;;;;;;;;;;;;;;;40.32;15.46;93251.56;2055641;69;20606;-74
2022/05/19 11:33:59;;;;;;;;;;;;;;;44.46;12.40;93259.09;2055283;70;20093;-75
2022/05/19 11:36:37;;;;;;;;;;;;;;;48.96;10.98;93266.09;2055691;70;20074;-77
2022/05/19 11:39:20;;;;;;;;;;;;;;;47.20;11.70;93256.84;2068513;69;20441;-74
2022/05/19 11:41:47;;;;;;;;;;;;;;;51.81;8.95;93268.44;2055830;70;20054;-76
2022/05/19 11:44:19;;;;;;;;;;;;;;;48.67;9.94;93252.66;2055744;70;20488;-76
2022/05/19 11:46:53;;;;;;;;;;;;;;;49.70;10.55;93248.31;2055792;70;20171;-75
2022/05/19 11:55:19;;;;;;;;;;;;;;;44.73;12.82;93228.53;2055906;70;20054;-75
2022/05/19 11:58:04;;;;;;;;;;;;;;;41.88;13.43;93222.16;2055740;70;20046;-75
2022/05/19 12:00:32;;;;;;;;;;;;;;;37.76;16.79;93204.78;2055894;69;20050;-75
2022/05/19 12:03:06;;;;;;;;;;;;;;;40.50;14.73;93214.63;2055653;70;20047;-77
2022/05/19 12:05:51;;;;;;;;;;;;;;;37.74;16.32;93204.84;2068820;69;20123;-76
2022/05/19 12:08:28;;;;;;;;;;;;;;;38.06;17.74;93202.28;2055768;69;20053;-77
2022/05/19 12:10:56;;;;;;;;;;;;;;;40.68;15.63;93213.09;2068819;69;20046;-77
2022/05/19 12:13:24;;;;;;;;;;;;;;;41.32;14.71;93203.41;2055804;70;20050;-75
2022/05/19 12:16:06;;;;;;;;;;;;;;;40.06;15.77;93218.03;2055780;70;20050;-78
2022/05/19 12:18:32;;;;;;;;;;;;;;;39.64;16.63;93207.28;2055777;69;20133;-77
2022/05/19 12:21:00;;;;;;;;;;;;;;;46.00;13.20;93221.84;2055724;70;20577;-77
2022/05/19 12:23:29;;;;;;;;;;;;;;;47.51;11.24;93217.28;2055561;69;20133;-79
2022/05/19 12:26:12;;;;;;;;;;;;;;;46.15;11.27;93209.72;2055653;70;20058;-77
2022/05/19 12:28:44;;;;;;;;;;;;;;;49.18;10.00;93218.81;2055734;69;20061;-73
2022/05/19 12:34:03;;;;;;;;;;;;;;;50.63;10.20;93233.09;2068734;69;20141;-74
2022/05/19 12:36:36;;;;;;;;;;;;;;;44.34;13.44;93213.78;2055696;70;20142;-73
2022/05/19 12:39:14;;;;;;;;;;;;;;;41.60;14.42;93210.19;2055803;70;20049;-73
2022/05/19 12:41:53;;;;;;;;;;;;;;;40.60;15.62;93206.06;2055714;70;20062;-72
2022/05/19 12:44:41;;;;;;;;;;;;;;;39.89;16.64;93194.44;2068754;69;20192;-73
2022/05/19 12:47:15;;;;;;;;;;;;;;;38.64;17.17;93195.75;2055857;70;20050;-72
2022/05/19 12:50:00;;;;;;;;;;;;;;;37.07;18.81;93187.25;2055549;70;20042;-73
2022/05/19 12:52:45;;;;;;;;;;;;;;;36.86;18.67;93189.34;2055620;69;20478;-74
2022/05/19 12:55:26;;;;;;;;;;;;;;;36.87;18.07;93176.81;2055564;69;20136;-75
2022/05/19 12:57:53;;;;;;;;;;;;;;;36.12;19.69;93176.84;2055188;70;20153;-75
2022/05/19 13:00:20;;;;;;;;;;;;;;;35.96;18.83;93177.31;2055670;69;20421;-77
2022/05/19 13:02:52;;;;;;;;;;;;;;;36.24;19.44;93178.00;2054842;69;20559;-76
2022/05/19 13:05:24;;;;;;;;;;;;;;;36.20;18.28;93178.09;2055529;70;20050;-73
2022/05/19 13:07:54;;;;;;;;;;;;;;;35.94;18.49;93177.34;2055122;70;20058;-75
2022/05/19 13:10:21;;;;;;;;;;;;;;;36.21;18.37;93176.63;2055242;70;20061;-75
2022/05/19 13:13:06;;;;;;;;;;;;;;;36.35;19.99;93173.28;2054822;70;20089;-75
2022/05/19 13:15:33;;;;;;;;;;;;;;;36.35;19.80;93179.13;2068544;69;20066;-75
2022/05/19 13:18:04;;;;;;;;;;;;;;;35.89;21.25;93170.16;2055497;69;20137;-76
2022/05/19 13:20:33;;;;;;;;;;;;;;;35.50;21.11;93182.19;2055586;70;20061;-75
2022/05/19 13:23:00;;;;;;;;;;;;;;;35.64;21.63;93170.81;2065781;69;20066;-75
2022/05/19 13:25:27;;;;;;;;;;;;;;;35.50;20.54;93179.28;2055625;70;20085;-77
2022/05/19 13:31:22;;;;;;;;;;;;;;;35.20;20.74;93166.84;2055668;70;20413;-72
2022/05/19 13:33:50;;;;;;;;;;;;;;;35.22;20.70;93160.22;2068493;69;20070;-73
2022/05/19 13:36:25;;;;;;;;;;;;;;;34.37;19.64;93158.50;2055729;69;20054;-74
2022/05/19 13:39:12;;;;;;;;;;;;;;;33.95;20.45;93157.22;2055868;70;20050;-74
2022/05/19 13:41:45;;;;;;;;;;;;;;;34.00;21.83;93152.72;2068670;69;20059;-74
2022/05/19 13:44:12;;;;;;;;;;;;;;;33.09;21.36;93155.84;2055725;70;20046;-74
2022/05/19 13:46:39;;;;;;;;;;;;;;;33.47;22.16;93150.81;2055824;70;20138;-73
2022/05/19 13:49:10;;;;;;;;;;;;;;;33.93;21.36;93160.13;2068512;69;20058;-74
2022/05/19 13:51:40;;;;;;;;;;;;;;;33.38;22.04;93158.97;2055616;70;20061;-74
2022/05/19 13:54:10;;;;;;;;;;;;;;;32.53;23.18;93158.16;2068610;69;20147;-75
2022/05/19 13:56:44;;;;;;;;;;;;;;;32.79;21.83;93159.22;2055590;70;20042;-75
2022/05/19 13:59:11;;;;;;;;;;;;;;;32.54;22.95;93139.19;2055689;69;20123;-75
2022/05/19 14:01:40;;;;;;;;;;;;;;;32.50;23.00;93139.25;2055519;70;20474;-76
2022/05/19 14:04:07;;;;;;;;;;;;;;;32.69;23.16;93144.81;2055447;70;20137;-75